createdAt,value
2022-12-12T00:01:37.760Z,5.66
2022-12-12T00:03:11.147Z,5.69
2022-12-12T00:04:44.401Z,5.77
2022-12-12T00:06:18.050Z,5.80
2022-12-12T00:07:51.462Z,5.82
2022-12-12T00:09:24.654Z,5.85
2022-12-12T00:10:57.274Z,5.85
2022-12-12T00:12:30.680Z,5.79
2022-12-12T00:14:05.348Z,5.77
2022-12-12T00:15:38.600Z,5.76
2022-12-12T00:17:13.158Z,5.78
2022-12-12T00:18:46.653Z,5.75
2022-12-12T00:20:20.209Z,5.71
2022-12-12T00:21:53.327Z,5.64
2022-12-12T00:23:27.197Z,5.65
2022-12-12T00:25:00.679Z,5.67
2022-12-12T00:26:36.106Z,5.72
2022-12-12T00:28:09.310Z,5.77
2022-12-12T00:29:42.586Z,5.81
2022-12-12T00:31:16.546Z,5.81
2022-12-12T00:32:51.305Z,5.86
2022-12-12T00:34:24.479Z,5.90
2022-12-12T00:35:58.300Z,5.89
2022-12-12T00:37:31.683Z,6.00
2022-12-12T00:39:05.709Z,5.98
2022-12-12T00:40:38.949Z,6.11
2022-12-12T00:42:12.128Z,6.14
2022-12-12T00:43:45.709Z,6.15
2022-12-12T00:45:19.342Z,6.14
2022-12-12T00:46:52.779Z,6.17
2022-12-12T00:48:27.773Z,6.19
2022-12-12T00:50:01.209Z,6.18
2022-12-12T00:51:34.706Z,6.17
2022-12-12T00:53:07.919Z,6.19
2022-12-12T00:54:41.059Z,6.20
2022-12-12T00:56:16.718Z,6.15
2022-12-12T00:57:50.162Z,6.20
2022-12-12T00:59:23.342Z,6.19
2022-12-12T01:00:56.475Z,6.19
2022-12-12T01:02:29.914Z,6.00
2022-12-12T01:04:06.461Z,5.90
2022-12-12T01:05:39.749Z,5.82
2022-12-12T01:07:12.892Z,5.82
2022-12-12T01:08:46.474Z,5.85
2022-12-12T01:10:20.432Z,5.87
2022-12-12T01:11:53.590Z,5.91
2022-12-12T01:13:27.148Z,5.96
2022-12-12T01:15:00.579Z,5.97
2022-12-12T01:16:34.485Z,6.00
2022-12-12T01:18:08.333Z,5.99
2022-12-12T01:19:43.069Z,6.05
2022-12-12T01:21:18.446Z,6.01
2022-12-12T01:22:51.993Z,5.92
2022-12-12T01:24:25.302Z,5.91
2022-12-12T01:26:02.350Z,5.88
2022-12-12T01:27:35.645Z,5.89
2022-12-12T01:29:09.142Z,5.90
2022-12-12T01:30:42.329Z,5.92
2022-12-12T01:32:15.481Z,5.94
2022-12-12T01:33:48.828Z,5.99
2022-12-12T01:35:24.021Z,5.99
2022-12-12T01:36:57.257Z,6.04
2022-12-12T01:38:30.462Z,6.08
2022-12-12T01:40:06.113Z,6.12
2022-12-12T01:41:39.557Z,6.13
2022-12-12T01:43:12.766Z,6.16
2022-12-12T01:44:49.636Z,6.20
2022-12-12T01:46:44.490Z,6.18
2022-12-12T01:48:16.878Z,6.23
2022-12-12T01:49:54.945Z,6.25
2022-12-12T01:51:29.858Z,6.25
2022-12-12T01:53:03.349Z,6.24
2022-12-12T01:54:40.939Z,6.28
2022-12-12T01:56:17.156Z,6.31
2022-12-12T01:57:53.829Z,6.32
2022-12-12T01:59:28.338Z,6.32
2022-12-12T02:01:01.355Z,6.36
2022-12-12T02:02:34.671Z,6.40
2022-12-12T02:04:09.370Z,6.44
2022-12-12T02:05:47.176Z,6.48
2022-12-12T02:07:21.700Z,6.52
2022-12-12T02:08:58.442Z,6.52
2022-12-12T02:10:31.846Z,6.53
2022-12-12T02:12:06.987Z,6.55
2022-12-12T02:13:39.415Z,6.56
2022-12-12T02:15:13.751Z,6.47
2022-12-12T02:17:05.831Z,6.56
2022-12-12T02:18:46.026Z,6.58
2022-12-12T02:20:54.491Z,6.58
2022-12-12T02:22:43.472Z,6.57
2022-12-12T02:24:44.138Z,6.47
2022-12-12T02:26:47.429Z,6.42
2022-12-12T02:28:41.302Z,6.47
2022-12-12T02:30:24.601Z,6.47
2022-12-12T02:32:06.538Z,6.43
2022-12-12T02:33:43.777Z,6.40
2022-12-12T02:35:21.014Z,6.48
2022-12-12T02:37:04.037Z,6.53
2022-12-12T02:38:45.857Z,6.55
2022-12-12T02:40:24.134Z,6.60
2022-12-12T02:42:04.660Z,6.56
2022-12-12T02:43:46.398Z,6.63
2022-12-12T02:45:29.009Z,6.67
2022-12-12T02:47:09.807Z,6.69
2022-12-12T02:48:49.845Z,6.70
2022-12-12T02:50:26.283Z,6.68
2022-12-12T02:52:02.340Z,6.66
2022-12-12T02:53:36.065Z,6.61
2022-12-12T02:55:10.731Z,6.56
2022-12-12T02:56:48.102Z,6.52
2022-12-12T02:58:21.555Z,6.49
2022-12-12T02:59:58.652Z,6.45
2022-12-12T03:01:45.560Z,6.46
2022-12-12T03:03:55.452Z,6.43
2022-12-12T03:06:00.954Z,6.38
2022-12-12T03:07:50.681Z,6.34
2022-12-12T03:09:35.321Z,6.37
2022-12-12T03:11:11.388Z,6.32
2022-12-12T03:13:00.797Z,6.30
2022-12-12T03:14:48.554Z,6.29
2022-12-12T03:16:27.633Z,6.30
2022-12-12T03:18:12.456Z,6.29
2022-12-12T03:19:57.313Z,6.30
2022-12-12T03:21:39.556Z,6.33
2022-12-12T03:23:17.266Z,6.31
2022-12-12T03:24:56.849Z,6.28
2022-12-12T03:26:35.631Z,6.29
2022-12-12T03:28:14.597Z,6.31
2022-12-12T03:29:54.463Z,6.33
2022-12-12T03:31:32.549Z,6.35
2022-12-12T03:33:16.010Z,6.39
2022-12-12T03:34:56.913Z,6.41
2022-12-12T03:36:36.602Z,6.41
2022-12-12T03:38:13.923Z,6.46
2022-12-12T03:39:52.111Z,6.51
2022-12-12T03:41:30.580Z,6.53
2022-12-12T03:43:08.600Z,6.54
2022-12-12T03:44:48.011Z,6.50
2022-12-12T03:46:26.452Z,6.47
2022-12-12T03:48:06.258Z,6.43
2022-12-12T03:49:43.569Z,6.35
2022-12-12T03:51:24.843Z,6.42
2022-12-12T03:53:03.074Z,6.37
2022-12-12T03:54:43.711Z,6.38
2022-12-12T03:56:32.851Z,6.40
2022-12-12T03:58:11.209Z,6.43
2022-12-12T03:59:48.586Z,6.43
2022-12-12T04:01:26.348Z,6.39
2022-12-12T04:03:07.264Z,6.35
2022-12-12T04:04:48.524Z,6.37
2022-12-12T04:06:31.521Z,6.37
2022-12-12T04:08:09.844Z,6.39
2022-12-12T04:10:01.919Z,6.43
2022-12-12T04:11:58.995Z,6.49
2022-12-12T04:13:36.711Z,6.51
2022-12-12T04:15:26.874Z,6.48
2022-12-12T04:17:05.713Z,6.44
2022-12-12T04:18:44.274Z,6.39
2022-12-12T04:20:42.765Z,6.33
2022-12-12T04:22:42.823Z,6.35
2022-12-12T04:24:24.180Z,6.34
2022-12-12T04:26:29.092Z,6.29
2022-12-12T04:28:07.722Z,6.17
2022-12-12T04:29:47.876Z,6.16
2022-12-12T04:31:25.558Z,6.20
2022-12-12T04:33:06.957Z,6.25
2022-12-12T04:34:44.369Z,6.27
2022-12-12T04:36:21.839Z,6.26
2022-12-12T04:38:00.151Z,6.18
2022-12-12T04:39:36.498Z,6.15
2022-12-12T04:41:13.163Z,6.06
2022-12-12T04:42:52.821Z,6.01
2022-12-12T04:44:30.595Z,5.94
2022-12-12T04:46:09.224Z,5.89
2022-12-12T04:47:45.870Z,5.89
2022-12-12T04:49:23.469Z,5.90
2022-12-12T04:50:58.702Z,5.97
2022-12-12T04:52:34.715Z,5.99
2022-12-12T04:54:13.496Z,6.06
2022-12-12T04:55:52.739Z,6.08
2022-12-12T04:57:31.127Z,6.07
2022-12-12T04:59:05.256Z,6.07
2022-12-12T05:00:47.619Z,6.09
2022-12-12T05:02:29.791Z,6.10
2022-12-12T05:04:08.980Z,6.08
2022-12-12T05:05:47.866Z,6.02
2022-12-12T05:07:29.352Z,5.96
2022-12-12T05:09:02.851Z,5.97
2022-12-12T05:10:44.129Z,5.90
2022-12-12T05:12:17.612Z,6.03
2022-12-12T05:13:51.513Z,6.07
2022-12-12T05:15:26.245Z,6.14
2022-12-12T05:17:05.200Z,6.15
2022-12-12T05:18:38.458Z,6.10
2022-12-12T05:20:11.922Z,6.05
2022-12-12T05:21:45.124Z,6.13
2022-12-12T05:23:18.998Z,6.15
2022-12-12T05:24:52.135Z,6.20
2022-12-12T05:26:29.194Z,6.25
2022-12-12T05:28:02.319Z,6.30
2022-12-12T05:29:35.690Z,6.34
2022-12-12T05:31:08.934Z,6.33
2022-12-12T05:32:42.158Z,6.32
2022-12-12T05:34:15.349Z,6.35
2022-12-12T05:35:48.907Z,6.38
2022-12-12T05:37:22.132Z,6.39
2022-12-12T05:38:55.425Z,6.38
2022-12-12T05:40:28.938Z,6.39
2022-12-12T05:42:03.656Z,6.40
2022-12-12T05:43:37.251Z,6.41
2022-12-12T05:45:12.662Z,6.35
2022-12-12T05:46:45.988Z,6.40
2022-12-12T05:48:24.146Z,6.41
2022-12-12T05:49:57.744Z,6.38
2022-12-12T05:51:31.331Z,6.43
2022-12-12T05:53:04.590Z,6.46
2022-12-12T05:54:38.133Z,6.48
2022-12-12T05:56:12.676Z,6.48
2022-12-12T05:57:47.232Z,6.50
2022-12-12T05:59:20.399Z,6.51
2022-12-12T06:00:57.355Z,6.54
2022-12-12T06:02:34.788Z,6.54
2022-12-12T06:04:08.062Z,6.54
2022-12-12T06:05:41.254Z,6.59
2022-12-12T06:07:14.612Z,6.61
2022-12-12T06:08:47.762Z,6.66
2022-12-12T06:10:21.104Z,6.68
2022-12-12T06:11:55.346Z,6.69
2022-12-12T06:13:30.098Z,6.71
2022-12-12T06:15:03.266Z,6.72
2022-12-12T06:16:36.841Z,6.73
2022-12-12T06:18:12.263Z,6.76
2022-12-12T06:19:45.790Z,6.76
2022-12-12T06:21:19.315Z,6.77
2022-12-12T06:22:53.944Z,6.76
2022-12-12T06:24:27.234Z,6.69
2022-12-12T06:26:00.778Z,6.63
2022-12-12T06:27:33.963Z,6.57
2022-12-12T06:29:08.543Z,6.50
2022-12-12T06:30:41.812Z,6.46
2022-12-12T06:32:15.557Z,6.50
2022-12-12T06:33:48.728Z,6.52
2022-12-12T06:35:22.004Z,6.50
2022-12-12T06:36:55.312Z,6.50
2022-12-12T06:38:29.174Z,6.53
2022-12-12T06:40:02.394Z,6.54
2022-12-12T06:41:36.041Z,6.54
2022-12-12T06:43:09.238Z,6.59
2022-12-12T06:44:44.450Z,6.62
2022-12-12T06:46:20.040Z,6.67
2022-12-12T06:47:53.234Z,6.71
2022-12-12T06:49:26.384Z,6.70
2022-12-12T06:51:00.578Z,6.68
2022-12-12T06:52:33.944Z,6.63
2022-12-12T06:54:07.329Z,6.67
2022-12-12T06:55:43.663Z,6.68
2022-12-12T06:57:17.087Z,6.70
2022-12-12T06:58:50.616Z,6.72
2022-12-12T07:00:25.254Z,6.74
2022-12-12T07:01:58.779Z,6.68
2022-12-12T07:03:32.819Z,6.69
2022-12-12T07:05:08.037Z,6.73
2022-12-12T07:06:41.640Z,6.84
2022-12-12T07:08:15.060Z,6.87
2022-12-12T07:09:48.614Z,6.89
2022-12-12T07:11:23.769Z,6.84
2022-12-12T07:12:57.661Z,6.82
2022-12-12T07:14:30.924Z,6.86
2022-12-12T07:16:06.346Z,6.88
2022-12-12T07:17:39.805Z,6.87
2022-12-12T07:19:13.020Z,6.88
2022-12-12T07:20:47.320Z,6.93
2022-12-12T07:22:20.885Z,6.97
2022-12-12T07:23:54.109Z,7.01
2022-12-12T07:25:27.439Z,7.02
2022-12-12T07:27:00.597Z,7.01
2022-12-12T07:28:34.519Z,6.98
2022-12-12T07:30:08.645Z,6.93
2022-12-12T07:31:43.312Z,6.87
2022-12-12T07:33:18.261Z,6.81
2022-12-12T07:34:51.994Z,6.77
2022-12-12T07:36:25.143Z,6.80
2022-12-12T07:37:58.366Z,6.81
2022-12-12T07:39:31.983Z,6.83
2022-12-12T07:41:06.760Z,6.88
2022-12-12T07:42:40.141Z,6.93
2022-12-12T07:44:13.291Z,6.91
2022-12-12T07:45:46.586Z,6.90
2022-12-12T07:47:21.510Z,7.02
2022-12-12T07:48:55.231Z,7.04
2022-12-12T07:50:28.487Z,7.05
2022-12-12T07:52:01.723Z,7.07
2022-12-12T07:53:35.379Z,7.13
2022-12-12T07:55:09.238Z,7.22
2022-12-12T07:56:42.469Z,7.22
2022-12-12T07:58:15.570Z,7.23
2022-12-12T07:59:48.992Z,7.25
2022-12-12T08:01:24.224Z,7.27
2022-12-12T08:02:58.951Z,7.28
2022-12-12T08:04:32.182Z,7.29
2022-12-12T08:06:07.024Z,7.32
2022-12-12T08:07:40.208Z,7.38
2022-12-12T08:09:13.494Z,7.44
2022-12-12T08:10:46.701Z,7.50
2022-12-12T08:12:20.438Z,7.49
2022-12-12T08:13:54.357Z,7.53
2022-12-12T08:15:27.565Z,7.50
2022-12-12T08:17:00.850Z,7.43
2022-12-12T08:18:35.933Z,7.43
2022-12-12T08:20:10.327Z,7.42
2022-12-12T08:21:44.659Z,7.37
2022-12-12T08:23:17.881Z,7.31
2022-12-12T08:24:51.463Z,7.22
2022-12-12T08:26:25.970Z,7.12
2022-12-12T08:27:59.132Z,7.04
2022-12-12T08:29:32.322Z,7.07
2022-12-12T08:31:06.016Z,7.11
2022-12-12T08:32:39.162Z,7.12
2022-12-12T08:34:13.871Z,7.09
2022-12-12T08:35:47.354Z,7.07
2022-12-12T08:37:21.750Z,7.06
2022-12-12T08:38:55.090Z,7.06
2022-12-12T08:40:28.386Z,7.07
2022-12-12T08:42:01.592Z,7.13
2022-12-12T08:43:35.299Z,7.22
2022-12-12T08:45:09.140Z,7.29
2022-12-12T08:46:42.750Z,7.31
2022-12-12T08:48:15.960Z,7.29
2022-12-12T08:49:50.863Z,7.30
2022-12-12T08:51:24.211Z,7.29
2022-12-12T08:52:57.327Z,7.37
2022-12-12T08:54:30.534Z,7.42
2022-12-12T08:56:04.262Z,7.43
2022-12-12T08:57:37.509Z,7.49
2022-12-12T08:59:10.915Z,7.55
2022-12-12T09:00:44.232Z,7.60
2022-12-12T09:02:18.056Z,7.55
2022-12-12T09:03:52.677Z,7.54
2022-12-12T09:05:27.288Z,7.57
2022-12-12T09:07:04.892Z,7.62
2022-12-12T09:08:42.496Z,7.60
2022-12-12T09:10:15.724Z,7.48
2022-12-12T09:11:48.857Z,7.46
2022-12-12T09:13:22.069Z,7.51
2022-12-12T09:14:55.729Z,7.58
2022-12-12T09:16:30.145Z,7.47
2022-12-12T09:18:03.536Z,7.53
2022-12-12T09:19:36.888Z,7.43
2022-12-12T09:21:11.812Z,7.44
2022-12-12T09:22:45.186Z,7.43
2022-12-12T09:24:18.468Z,7.47
2022-12-12T09:25:52.324Z,7.45
2022-12-12T09:27:25.709Z,7.42
2022-12-12T09:28:58.954Z,7.46
2022-12-12T09:30:32.406Z,7.53
2022-12-12T10:24:11.783Z,8.24
2022-12-12T10:25:50.978Z,8.14
2022-12-12T10:27:25.443Z,8.14
2022-12-12T10:29:03.920Z,8.12
2022-12-12T10:30:53.547Z,8.19
2022-12-12T10:32:37.811Z,8.19
2022-12-12T10:34:26.330Z,8.20
2022-12-12T10:36:11.635Z,8.27
2022-12-12T10:37:53.991Z,8.31
2022-12-12T10:39:37.115Z,8.32
2022-12-12T10:41:19.200Z,8.26
2022-12-12T10:43:01.465Z,8.22
2022-12-12T10:45:06.029Z,8.19
2022-12-12T10:46:44.657Z,8.24
2022-12-12T10:48:17.944Z,8.13
2022-12-12T10:49:54.718Z,8.18
2022-12-12T10:51:32.088Z,8.20
2022-12-12T10:53:08.486Z,8.23
2022-12-12T10:54:47.958Z,8.24
2022-12-12T10:56:24.477Z,8.18
2022-12-12T10:58:03.824Z,8.16
2022-12-12T10:59:45.762Z,8.13
2022-12-12T11:01:38.461Z,8.29
2022-12-12T11:03:26.948Z,8.39
2022-12-12T11:05:17.389Z,8.40
2022-12-12T11:06:53.720Z,8.37
2022-12-12T11:08:29.937Z,8.27
2022-12-12T11:10:22.099Z,8.33
2022-12-12T11:12:00.979Z,8.39
2022-12-12T11:13:40.878Z,8.44
2022-12-12T11:15:18.609Z,8.53
2022-12-12T11:16:52.023Z,8.53
2022-12-12T11:18:26.458Z,8.45
2022-12-12T11:20:02.411Z,8.42
2022-12-12T11:21:37.464Z,8.48
2022-12-12T11:23:19.039Z,8.41
2022-12-12T11:24:53.458Z,8.40
2022-12-12T11:26:30.407Z,8.38
2022-12-12T11:28:06.872Z,8.38
2022-12-12T11:29:46.013Z,8.42
2022-12-12T11:31:24.454Z,8.30
2022-12-12T11:32:58.685Z,8.25
2022-12-12T11:34:35.035Z,8.09
2022-12-12T11:36:09.012Z,8.10
2022-12-12T11:37:51.321Z,8.24
2022-12-12T11:39:29.381Z,8.33
2022-12-12T11:41:05.550Z,8.43
2022-12-12T11:42:41.520Z,8.52
2022-12-12T11:44:25.748Z,8.58
2022-12-12T11:46:02.475Z,8.65
2022-12-12T11:47:42.185Z,8.63
2022-12-12T11:49:21.375Z,8.65
2022-12-12T11:50:54.544Z,8.67
2022-12-12T11:52:32.865Z,8.71
2022-12-12T11:54:13.242Z,8.74
2022-12-12T11:55:56.192Z,8.76
2022-12-12T11:57:49.864Z,8.85
2022-12-12T11:59:46.210Z,8.87
2022-12-12T12:01:28.469Z,8.72
2022-12-12T12:03:38.886Z,8.50
2022-12-12T12:05:25.114Z,8.56
2022-12-12T12:07:12.607Z,8.60
2022-12-12T12:09:00.546Z,8.63
2022-12-12T12:10:47.984Z,8.72
2022-12-12T12:12:28.334Z,8.79
2022-12-12T12:14:25.285Z,8.86
2022-12-12T12:16:09.679Z,8.93
2022-12-12T12:18:05.629Z,8.97
2022-12-12T12:19:47.333Z,8.93
2022-12-12T12:21:32.445Z,8.84
2022-12-12T12:23:21.498Z,8.80
2022-12-12T12:25:11.183Z,8.81
2022-12-12T12:26:54.700Z,8.88
2022-12-12T12:28:53.971Z,8.77
2022-12-12T12:30:34.885Z,8.70
2022-12-12T12:32:15.088Z,8.70
2022-12-12T12:34:03.744Z,8.75
2022-12-12T12:35:50.055Z,8.79
2022-12-12T12:37:36.151Z,8.84
2022-12-12T12:39:21.415Z,8.88
2022-12-12T12:41:16.369Z,8.87
2022-12-12T12:43:02.060Z,8.81
2022-12-12T12:44:47.785Z,8.72
2022-12-12T12:46:31.683Z,8.63
2022-12-12T12:48:11.329Z,8.62
2022-12-12T12:49:52.506Z,8.65
2022-12-12T12:51:30.849Z,8.67
2022-12-12T12:53:09.179Z,8.69
2022-12-12T12:54:46.869Z,8.68
2022-12-12T12:56:26.736Z,8.68
2022-12-12T12:58:04.430Z,8.66
2022-12-12T12:59:41.629Z,8.62
2022-12-12T13:01:18.951Z,8.63
2022-12-12T13:02:59.291Z,8.60
2022-12-12T13:04:37.963Z,8.57
2022-12-12T13:06:17.337Z,8.60
2022-12-12T13:07:58.300Z,8.57
2022-12-12T13:09:43.127Z,8.60
2022-12-12T13:11:22.697Z,8.66
2022-12-12T13:12:58.865Z,8.68
2022-12-12T13:14:41.017Z,8.74
2022-12-12T13:16:18.464Z,8.79
2022-12-12T13:18:01.311Z,8.71
2022-12-12T13:19:38.837Z,8.65
2022-12-12T13:21:21.552Z,8.64
2022-12-12T13:23:12.198Z,8.58
2022-12-12T13:24:56.308Z,8.62
2022-12-12T13:26:43.643Z,8.62
2022-12-12T13:28:19.836Z,8.55
2022-12-12T13:29:58.070Z,8.51
2022-12-12T13:32:09.181Z,8.52
2022-12-12T13:33:47.611Z,8.57
2022-12-12T13:35:29.023Z,8.56
2022-12-12T13:37:07.556Z,8.45
2022-12-12T13:38:42.406Z,8.39
2022-12-12T13:40:26.763Z,8.21
2022-12-12T13:42:02.580Z,8.14
2022-12-12T13:43:46.961Z,8.15
2022-12-12T13:45:46.142Z,8.20
2022-12-12T13:47:58.362Z,8.13
2022-12-12T13:49:48.983Z,8.13
2022-12-12T13:51:36.793Z,8.13
2022-12-12T13:53:20.417Z,8.09
2022-12-12T13:54:58.319Z,8.09
2022-12-12T13:56:35.773Z,8.09
2022-12-12T13:58:20.896Z,8.13
2022-12-12T14:00:21.965Z,8.17
2022-12-12T14:01:57.235Z,8.07
2022-12-12T14:03:32.395Z,8.08
2022-12-12T14:05:17.199Z,8.07
2022-12-12T14:07:01.684Z,8.13
2022-12-12T14:08:38.859Z,8.11
2022-12-12T14:10:21.469Z,8.11
2022-12-12T14:11:54.719Z,8.13
2022-12-12T14:13:44.983Z,8.13
2022-12-12T14:15:28.114Z,8.18
2022-12-12T14:17:02.901Z,8.16
2022-12-12T14:18:40.963Z,8.08
2022-12-12T14:20:27.727Z,8.13
2022-12-12T14:22:00.939Z,8.13
2022-12-12T14:23:36.890Z,8.08
2022-12-12T14:25:21.654Z,7.96
2022-12-12T14:26:55.078Z,7.92
2022-12-12T14:28:29.764Z,7.93
2022-12-12T14:30:03.340Z,7.92
2022-12-12T14:31:42.926Z,7.95
2022-12-12T14:33:58.541Z,7.96
2022-12-12T14:35:42.659Z,8.01
2022-12-12T14:37:47.008Z,7.96
2022-12-12T14:39:52.697Z,7.90
2022-12-12T14:41:35.877Z,7.83
2022-12-12T14:43:21.985Z,7.73
2022-12-12T14:44:56.467Z,7.74
2022-12-12T14:46:31.624Z,7.73
2022-12-12T14:48:22.627Z,7.70
2022-12-12T14:50:10.774Z,7.67
2022-12-12T14:51:46.763Z,7.62
2022-12-12T14:53:22.822Z,7.57
2022-12-12T14:54:56.051Z,7.64
2022-12-12T14:56:33.141Z,7.59
2022-12-12T14:58:06.503Z,7.58
2022-12-12T14:59:42.648Z,7.55
2022-12-12T15:01:20.836Z,7.56
2022-12-12T15:02:54.768Z,7.51
2022-12-12T15:04:32.667Z,7.49
2022-12-12T15:06:37.700Z,7.41
2022-12-12T15:08:21.002Z,7.43
2022-12-12T15:09:54.398Z,7.42
2022-12-12T15:11:31.823Z,7.38
2022-12-12T15:13:21.002Z,7.38
2022-12-12T15:14:57.127Z,7.37
2022-12-12T15:16:42.730Z,7.48
2022-12-12T15:18:22.323Z,7.49
2022-12-12T15:19:59.793Z,7.52
2022-12-12T15:21:34.262Z,7.41
2022-12-12T15:23:09.182Z,7.36
2022-12-12T15:24:44.391Z,7.35
2022-12-12T15:26:20.247Z,7.29
2022-12-12T15:27:56.810Z,7.33
2022-12-12T15:29:32.231Z,7.31
2022-12-12T15:31:07.267Z,7.28
2022-12-12T15:32:41.555Z,7.32
2022-12-12T15:34:37.112Z,7.35
2022-12-12T15:36:27.936Z,7.29
2022-12-12T15:38:03.804Z,7.38
2022-12-12T15:39:39.777Z,7.37
2022-12-12T15:41:16.180Z,7.32
2022-12-12T15:42:54.604Z,7.26
2022-12-12T15:44:28.701Z,7.22
2022-12-12T15:46:06.981Z,7.31
2022-12-12T15:47:40.338Z,7.35
2022-12-12T15:49:39.142Z,7.42
2022-12-12T15:51:18.325Z,7.42
2022-12-12T15:53:06.817Z,7.48
2022-12-12T15:54:47.527Z,7.46
2022-12-12T15:56:28.869Z,7.55
2022-12-12T15:58:02.713Z,7.53
2022-12-12T15:59:36.243Z,7.58
2022-12-12T16:01:20.417Z,7.54
2022-12-12T16:03:03.473Z,7.49
2022-12-12T16:04:37.122Z,7.54
2022-12-12T16:06:18.276Z,7.56
2022-12-12T16:07:51.927Z,7.60
2022-12-12T16:09:30.049Z,7.53
2022-12-12T16:11:05.933Z,7.56
2022-12-12T16:13:23.392Z,7.61
2022-12-12T16:14:57.071Z,7.64
2022-12-12T16:16:54.590Z,7.65
2022-12-12T16:18:29.184Z,7.67
2022-12-12T16:20:06.520Z,7.69
2022-12-12T16:22:03.624Z,7.67
2022-12-12T16:23:43.817Z,7.63
2022-12-12T16:25:22.014Z,7.64
2022-12-12T16:26:59.663Z,7.64
2022-12-12T16:28:34.814Z,7.66
2022-12-12T16:30:09.462Z,7.67
2022-12-12T16:31:45.348Z,7.67
2022-12-12T16:33:26.314Z,7.66
2022-12-12T16:35:00.138Z,7.68
2022-12-12T16:36:40.022Z,7.68
2022-12-12T16:38:16.991Z,7.66
2022-12-12T16:39:50.355Z,7.61
2022-12-12T16:41:23.662Z,7.65
2022-12-12T16:43:10.819Z,7.56
2022-12-12T16:44:47.850Z,7.52
2022-12-12T16:46:23.860Z,7.36
2022-12-12T16:47:59.080Z,7.18
2022-12-12T16:49:32.790Z,7.13
2022-12-12T16:51:08.687Z,7.10
2022-12-12T16:52:42.118Z,7.02
2022-12-12T16:54:18.063Z,6.97
2022-12-12T16:55:54.251Z,6.99
2022-12-12T16:57:27.434Z,6.98
2022-12-12T16:59:00.978Z,7.04
2022-12-12T17:00:35.684Z,7.06
2022-12-12T17:02:20.063Z,7.04
2022-12-12T17:03:54.140Z,7.07
2022-12-12T17:05:30.393Z,7.02
2022-12-12T17:07:08.034Z,7.04
2022-12-12T17:08:42.040Z,7.02
2022-12-12T17:10:16.993Z,6.94
2022-12-12T17:11:50.559Z,6.91
2022-12-12T17:13:25.644Z,6.89
2022-12-12T17:14:59.032Z,6.90
2022-12-12T17:16:33.890Z,6.97
2022-12-12T17:18:07.291Z,7.01
2022-12-12T17:19:40.547Z,6.90
2022-12-12T17:21:13.987Z,6.81
2022-12-12T17:22:47.711Z,6.71
2022-12-12T17:24:21.765Z,6.71
2022-12-12T17:26:02.501Z,6.71
2022-12-12T17:27:37.731Z,6.73
2022-12-12T17:29:11.647Z,6.72
2022-12-12T17:30:45.775Z,6.71
2022-12-12T17:32:24.367Z,6.67
2022-12-12T17:33:58.252Z,6.63
2022-12-12T17:35:31.671Z,6.52
2022-12-12T17:37:05.066Z,6.39
2022-12-12T17:38:39.179Z,6.25
2022-12-12T17:40:14.218Z,6.14
2022-12-12T17:41:50.168Z,6.00
2022-12-12T17:43:25.291Z,5.82
2022-12-12T17:44:58.617Z,5.61
2022-12-12T17:46:33.302Z,5.22
2022-12-12T17:48:08.451Z,5.11
2022-12-12T17:49:42.652Z,5.05
2022-12-12T17:51:18.521Z,5.05
2022-12-12T17:52:52.836Z,4.99
2022-12-12T17:54:26.879Z,4.94
2022-12-12T17:56:07.677Z,4.93
2022-12-12T17:57:41.475Z,4.88
2022-12-12T17:59:16.066Z,4.80
2022-12-12T18:00:49.764Z,4.66
2022-12-12T18:02:23.351Z,4.60
2022-12-12T18:03:59.819Z,4.59
2022-12-12T18:05:33.551Z,4.54
2022-12-12T18:07:07.492Z,4.50
2022-12-12T18:08:42.206Z,4.45
2022-12-12T18:10:15.827Z,4.47
2022-12-12T18:11:49.277Z,4.43
2022-12-12T18:13:22.536Z,4.42
2022-12-12T18:14:56.195Z,4.40
2022-12-12T18:16:32.180Z,4.28
2022-12-12T18:18:05.793Z,4.29
2022-12-12T18:19:40.523Z,4.28
2022-12-12T18:21:29.240Z,4.25
2022-12-12T18:23:09.116Z,4.33
2022-12-12T18:24:42.258Z,4.34
2022-12-12T18:26:21.746Z,4.32
2022-12-12T18:27:56.017Z,4.29
2022-12-12T18:29:29.571Z,4.23
2022-12-12T18:31:03.059Z,4.22
2022-12-12T18:32:36.886Z,4.25
2022-12-12T18:34:11.013Z,4.17
2022-12-12T18:35:46.668Z,4.07
2022-12-12T18:37:20.304Z,4.12
2022-12-12T18:38:53.956Z,4.10
2022-12-12T18:40:28.036Z,4.14
2022-12-12T18:42:01.570Z,4.10
2022-12-12T18:43:35.873Z,4.01
2022-12-12T18:45:12.069Z,4.00
2022-12-12T18:46:45.263Z,4.05
2022-12-12T18:48:18.634Z,4.06
2022-12-12T18:49:52.720Z,3.98
2022-12-12T18:51:28.931Z,4.07
2022-12-12T18:53:02.182Z,4.10
2022-12-12T18:54:35.779Z,4.03
2022-12-12T18:56:10.260Z,4.12
2022-12-12T18:57:44.919Z,4.16
2022-12-12T18:59:18.504Z,4.17
2022-12-12T19:00:51.826Z,4.19
2022-12-12T19:02:25.956Z,4.23
2022-12-12T19:04:04.538Z,4.26
2022-12-12T19:05:42.121Z,4.28
2022-12-12T19:07:18.552Z,4.30
2022-12-12T19:08:52.300Z,4.32
2022-12-12T19:10:25.809Z,4.34
2022-12-12T19:12:02.663Z,4.33
2022-12-12T19:13:36.524Z,4.26
2022-12-12T19:15:19.187Z,4.27
2022-12-12T19:16:52.786Z,4.30
2022-12-12T19:18:26.065Z,4.34
2022-12-12T19:19:59.389Z,4.29
2022-12-12T19:21:33.849Z,4.25
2022-12-12T19:23:08.498Z,4.25
2022-12-12T19:24:41.771Z,4.27
2022-12-12T19:26:16.542Z,4.30
2022-12-12T19:27:51.513Z,4.32
2022-12-12T19:29:24.840Z,4.36
2022-12-12T19:30:58.255Z,4.39
2022-12-12T19:32:31.615Z,4.40
2022-12-12T19:34:05.915Z,4.39
2022-12-12T19:35:39.351Z,4.39
2022-12-12T19:37:12.619Z,4.29
2022-12-12T19:38:48.315Z,4.27
2022-12-12T19:40:21.568Z,4.19
2022-12-12T19:41:54.916Z,4.24
2022-12-12T19:43:30.376Z,4.26
2022-12-12T19:45:04.756Z,4.27
2022-12-12T19:46:37.948Z,4.27
2022-12-12T19:48:11.493Z,4.25
2022-12-12T19:49:44.740Z,4.17
2022-12-12T19:51:20.347Z,4.15
2022-12-12T19:52:53.630Z,4.13
2022-12-12T19:54:28.491Z,4.10
2022-12-12T19:56:01.954Z,4.08
2022-12-12T19:57:35.269Z,4.04
2022-12-12T19:59:09.500Z,3.96
2022-12-12T20:00:43.966Z,3.97
2022-12-12T20:02:17.168Z,3.98
2022-12-12T20:03:51.402Z,4.00
2022-12-12T20:05:26.258Z,4.00
2022-12-12T20:07:00.373Z,3.95
2022-12-12T20:08:34.613Z,3.95
2022-12-12T20:10:10.357Z,3.96
2022-12-12T20:11:45.478Z,3.97
2022-12-12T20:13:18.845Z,3.91
2022-12-12T20:14:51.954Z,3.88
2022-12-12T20:16:27.996Z,3.82
2022-12-12T20:18:02.897Z,3.85
2022-12-12T20:19:36.449Z,3.77
2022-12-12T20:21:20.451Z,3.71
2022-12-12T20:23:03.762Z,3.57
2022-12-12T20:24:37.474Z,3.53
2022-12-12T20:26:15.586Z,3.49
2022-12-12T20:27:48.789Z,3.48
2022-12-12T20:29:24.302Z,3.45
2022-12-12T20:31:05.852Z,3.35
2022-12-12T20:32:39.092Z,3.31
2022-12-12T20:34:13.143Z,3.32
2022-12-12T20:35:46.535Z,3.24
2022-12-12T20:37:20.410Z,3.27
2022-12-12T20:38:55.697Z,3.25
2022-12-12T20:40:28.959Z,3.24
2022-12-12T20:42:03.874Z,3.22
2022-12-12T20:43:37.468Z,3.18
2022-12-12T20:45:11.575Z,3.13
2022-12-12T20:46:47.232Z,3.08
2022-12-12T20:48:21.040Z,3.03
2022-12-12T20:49:54.833Z,2.99
2022-12-12T20:51:54.882Z,2.96
2022-12-12T20:53:23.803Z,2.89
2022-12-12T20:54:57.963Z,2.92
2022-12-12T20:56:31.731Z,2.93
2022-12-12T20:58:06.626Z,2.92
2022-12-12T20:59:40.297Z,2.93
2022-12-12T21:01:16.214Z,2.89
2022-12-12T21:02:49.456Z,2.88
2022-12-12T21:04:24.177Z,2.88
2022-12-12T21:05:57.570Z,2.92
2022-12-12T21:07:33.043Z,2.97
2022-12-12T21:09:09.732Z,3.01
2022-12-12T21:10:43.103Z,3.04
2022-12-12T21:12:16.594Z,3.03
2022-12-12T21:13:51.728Z,2.97
2022-12-12T21:15:24.910Z,2.95
2022-12-12T21:16:58.175Z,2.96
2022-12-12T21:18:32.612Z,2.94
2022-12-12T21:20:07.254Z,2.92
2022-12-12T21:21:41.556Z,2.92
2022-12-12T21:23:14.723Z,2.93
2022-12-12T21:24:48.210Z,2.95
2022-12-12T21:26:28.625Z,2.97
2022-12-12T21:28:02.499Z,2.98
2022-12-12T21:29:37.290Z,3.03
2022-12-12T21:31:11.829Z,3.04
2022-12-12T21:32:45.075Z,3.04
2022-12-12T21:34:18.404Z,3.12
2022-12-12T21:35:51.636Z,3.15
2022-12-12T21:37:24.827Z,3.08
2022-12-12T21:38:59.863Z,3.18
2022-12-12T21:40:33.114Z,3.24
2022-12-12T21:42:06.339Z,3.28
2022-12-12T21:43:39.810Z,3.26
2022-12-12T21:45:16.289Z,3.30
2022-12-12T21:46:49.837Z,3.31
2022-12-12T21:48:23.088Z,3.24
2022-12-12T21:49:56.362Z,3.23
2022-12-12T21:51:29.966Z,3.20
2022-12-12T21:53:20.306Z,3.19
2022-12-12T21:54:53.416Z,3.20
2022-12-12T21:56:26.786Z,3.17
2022-12-12T21:58:00.038Z,3.09
2022-12-12T21:59:33.184Z,3.01
2022-12-12T22:01:09.741Z,3.01
2022-12-12T22:02:48.336Z,3.01
2022-12-12T22:04:23.228Z,2.95
2022-12-12T22:05:56.420Z,2.94
2022-12-12T22:07:29.531Z,2.96
2022-12-12T22:09:05.368Z,2.99
2022-12-12T22:10:39.095Z,3.03
2022-12-12T22:12:12.339Z,3.01
2022-12-12T22:13:52.222Z,2.93
2022-12-12T22:15:25.931Z,2.91
2022-12-12T22:17:00.601Z,2.88
2022-12-12T22:18:34.633Z,2.89
2022-12-12T22:20:08.772Z,2.90
2022-12-12T22:21:42.247Z,2.96
2022-12-12T22:23:15.906Z,2.95
2022-12-12T22:24:49.074Z,2.90
2022-12-12T22:26:25.367Z,2.92
2022-12-12T22:27:58.687Z,2.96
2022-12-12T22:29:32.061Z,2.97
2022-12-12T22:31:05.970Z,2.98